Werte bis 5 Uhr SommerzeitDiagramme Mardorf: Tagesdaten MonatsdatenCSV-Datei: Mardorf20.csv

Wetterdaten 2020 Station: Mardorf
Temperaturen in °C relative Nieder- Global- Wind Wind Wind- Sonnen-
Datum Boden Boden Luft Luft Luft Luft Feuchte schlag strahlung max richtung schein
20 cm 5 cm 20 cm 2 m 2 m max 2 m min % mm W/m2*d m/s m/s ° h

07.08.2020 21,1 21,2 14,3 17,2 20,3 15,5 53 0,0 0 0,5 1,8 --- ---
06.08.2020 20,1 21,1 23,8 22,7 31,9 12,9 43 0,7 6884 1,4 6,7 --- 12,0
05.08.2020 19,4 20,0 21,6 19,5 28,1 9,6 53 0,0 6983 1,8 8,3 --- 11,9
04.08.2020 19,4 19,5 18,4 16,7 23,9 10,1 62 0,0 5832 1,7 11,7 --- 10,6
03.08.2020 20,0 20,2 19,0 17,5 22,4 12,6 68 0,0 4985 1,8 7,2 --- 11,7
02.08.2020 20,8 21,4 20,9 20,2 25,1 16,2 78 5,6 3278 1,3 7,1 --- 8,1
01.08.2020 20,9 21,8 24,9 23,9 32,8 15,2 54 0,0 4862 1,8 7,7 --- 12,4
31.07.2020 20,3 21,3 24,1 22,6 32,9 11,4 50 0,0 7144 1,5 5,2 --- 12,3
30.07.2020 19,8 20,5 20,7 18,8 28,8 8,9 56 0,0 6975 1,4 5,0 --- 12,3
29.07.2020 19,8 20,4 19,5 17,4 24,6 9,7 59 0,0 6670 2,6 8,9 --- 12,4
28.07.2020 19,8 20,7 22,6 21,5 26,8 13,8 54 0,0 5669 2,8 11,0 --- 12,1
27.07.2020 19,6 20,0 21,2 20,2 27,4 11,9 62 0,0 3946 1,6 7,8 --- 11,1
26.07.2020 20,2 21,0 21,7 20,5 24,9 16,3 63 4,6 5065 3,0 11,7 --- 10,5
25.07.2020 20,0 20,8 22,7 20,7 26,4 14,4 61 0,0 5033 2,3 8,1 --- 12,1
24.07.2020 19,7 20,7 22,0 20,5 26,9 13,4 52 0,0 5663 2,1 11,6 --- 10,8
23.07.2020 19,0 19,8 19,8 17,8 26,7 8,8 57 0,0 7389 1,4 15,1 --- 12,3
22.07.2020 18,8 19,3 18,3 16,2 24,5 7,8 60 0,0 6695 1,6 8,4 --- 13,0
21.07.2020 18,8 19,3 18,4 15,9 23,2 8,2 63 0,0 7122 1,9 8,7 --- 13,0
20.07.2020 19,2 19,9 19,6 18,2 22,7 11,9 70 0,0 4851 2,0 8,2 --- 11,3
19.07.2020 18,7 19,7 22,4 20,6 28,2 11,4 58 0,0 6368 1,7 7,2 --- 11,8
18.07.2020 18,1 18,8 20,5 18,8 27,3 10,4 62 0,0 5720 1,2 5,6 --- 12,9
17.07.2020 17,6 18,3 17,9 16,5 23,7 11,4 76 0,1 5018 1,1 6,1 --- 10,0
16.07.2020 17,6 17,4 14,2 13,6 17,3 11,2 88 1,3 1967 1,0 4,2 --- 6,4
15.07.2020 18,7 18,8 15,9 14,9 19,7 12,8 87 4,0 2444 1,1 6,0 --- 6,6
14.07.2020 18,8 19,7 19,9 18,4 27,7 10,3 61 0,0 5776 1,6 7,1 --- 10,0
13.07.2020 18,0 18,8 19,8 17,6 26,7 7,4 59 0,0 7270 1,1 5,3 --- 13,5
12.07.2020 17,7 18,1 17,4 15,2 22,4 7,7 67 0,0 6278 1,5 7,4 --- 12,8
11.07.2020 17,7 17,9 16,3 14,3 21,2 7,9 70 0,0 5556 1,5 6,8 --- 12,4
10.07.2020 18,4 18,9 18,6 17,5 22,0 10,8 78 0,0 3592 2,9 12,2 --- 11,2
09.07.2020 17,9 18,6 19,3 18,4 25,0 13,9 82 0,0 3568 3,1 11,7 --- 9,1
08.07.2020 17,9 18,0 14,8 13,7 16,4 11,8 89 0,0 2722 2,0 6,1 --- 10,3
07.07.2020 17,9 18,1 16,5 14,6 21,2 8,5 69 0,0 5428 2,1 9,4 --- 11,3
06.07.2020 18,9 18,9 15,8 14,7 19,3 9,1 71 1,3 4902 3,5 14,3 --- 11,3
05.07.2020 19,2 20,0 21,9 21,2 26,1 18,0 70 0,0 4457 5,4 15,0 --- 10,2
04.07.2020 19,1 19,6 19,4 18,5 23,7 11,8 66 0,0 5604 3,9 13,3 --- 11,7
03.07.2020 19,2 20,0 19,3 17,0 22,9 12,2 75 0,1 7092 2,5 9,4 --- 13,3
02.07.2020 19,2 20,1 19,3 17,8 24,5 12,6 81 16,6 5469 2,1 12,2 --- 11,4
01.07.2020 19,0 19,8 21,0 19,9 26,1 16,5 69 2,8 4438 4,0 12,2 --- 10,3
30.06.2020 18,9 19,2 18,4 17,2 21,6 12,1 56 0,0 6326 4,9 13,3 --- 12,5
29.06.2020 19,2 19,7 18,5 16,9 22,6 12,0 69 0,0 6050 2,7 9,9 --- 12,1
28.06.2020 20,2 20,8 20,6 20,0 23,2 14,5 67 0,6 3808 3,4 11,7 --- 10,1
27.06.2020 20,1 21,4 24,0 22,4 27,5 16,0 66 0,0 6307 3,2 12,1 --- 11,3
26.06.2020 19,5 20,8 23,6 21,9 29,2 12,9 57 0,0 7283 1,7 7,3 --- 13,0
25.06.2020 19,2 20,3 21,9 20,4 27,0 12,9 67 0,0 6820 1,8 8,6 --- 13,5
24.06.2020 18,8 20,0 20,8 19,6 26,7 10,8 61 0,0 7830 1,6 7,9 --- 12,8
23.06.2020 18,3 19,4 20,9 18,7 26,1 10,7 65 0,0 7687 1,6 6,5 --- 13,1
22.06.2020 18,3 19,3 19,9 18,4 23,3 13,2 71 0,0 5298 1,8 7,3 --- 12,2
21.06.2020 17,5 18,5 20,5 18,3 25,9 9,7 67 0,0 7285 1,3 6,2 --- 13,4
20.06.2020 17,3 18,1 19,0 17,5 22,4 12,9 75 0,0 4957 1,5 6,7 --- 12,5
19.06.2020 16,9 17,6 18,0 16,7 23,2 11,0 83 0,3 4648 1,0 6,4 --- 11,8
18.06.2020 17,2 17,6 16,5 16,0 19,9 13,3 93 3,9 2138 1,7 5,9 --- 7,6
17.06.2020 17,0 17,8 17,3 16,5 25,3 11,7 90 2,3 3645 1,1 7,8 --- 9,5
16.06.2020 17,1 17,9 17,9 16,8 19,4 2,0 90 0,0 2801 1,4 4,7 --- 10,3
15.06.2020 17,4 17,9 16,2 15,7 17,7 14,3 95 8,2 1738 1,0 5,2 --- 6,1
14.06.2020 17,8 18,7 18,9 18,2 23,0 15,7 93 6,6 2189 1,2 6,3 --- 6,4
13.06.2020 17,4 19,1 22,8 21,4 29,1 15,3 75 3,2 5989 1,6 7,1 --- 12,1
12.06.2020 15,9 17,4 21,1 19,9 27,5 12,2 73 0,0 7467 2,1 9,8 --- 12,4
11.06.2020 15,2 15,8 15,8 14,9 18,0 11,7 87 2,4 3000 0,9 5,3 --- 10,5
10.06.2020 14,9 15,3 14,7 14,0 18,3 11,6 89 1,6 2527 1,2 5,9 --- 7,8
09.06.2020 14,7 14,9 13,4 12,7 20,3 7,0 87 2,7 3539 1,0 6,7 --- 9,7
08.06.2020 14,9 15,3 14,6 13,2 21,3 6,5 72 0,0 4768 1,2 7,5 --- 11,0
07.06.2020 14,7 15,0 14,9 13,6 18,6 9,3 66 0,0 5791 2,8 10,7 --- 11,8
06.06.2020 14,5 14,4 12,5 11,2 15,9 7,1 78 2,6 5794 4,3 12,3 --- 11,1
05.06.2020 15,4 15,2 11,2 10,4 14,6 7,9 85 6,0 3611 4,1 16,0 --- 9,8
04.06.2020 16,7 16,8 13,1 13,1 16,6 10,7 92 11,7 1427 1,0 7,5 --- 3,9
03.06.2020 17,5 18,5 19,4 18,7 26,6 12,2 56 0,0 4965 1,2 7,9 --- 10,5
02.06.2020 17,0 18,3 19,9 18,6 27,1 8,3 54 0,0 7682 1,5 6,7 --- 12,9
01.06.2020 16,3 17,5 18,1 16,5 25,4 6,4 59 0,0 8146 1,7 8,3 --- 12,9
31.05.2020 15,9 16,7 15,3 13,7 21,1 7,0 60 0,0 6583 2,0 7,4 --- 12,6
30.05.2020 15,9 16,6 15,0 13,8 20,2 5,8 54 0,0 6748 2,0 10,4 --- 12,1
29.05.2020 15,9 16,8 15,4 13,7 20,9 5,2 55 0,0 7980 1,8 8,1 --- 12,9
28.05.2020 15,8 17,0 16,4 14,3 19,5 8,3 57 0,0 8109 2,7 9,9 --- 12,8
27.05.2020 14,8 15,8 17,0 15,3 23,6 5,7 63 0,0 6865 1,4 8,4 --- 12,2
26.05.2020 14,4 15,0 14,8 12,8 20,2 5,2 71 0,0 6273 1,4 5,9 --- 13,2
25.05.2020 14,0 14,7 14,5 13,4 18,6 8,5 75 0,3 5604 2,4 10,3 --- 10,7
24.05.2020 14,1 13,9 12,2 11,8 16,0 8,4 75 0,4 3004 3,5 11,5 --- 7,3
23.05.2020 15,4 15,8 13,6 13,1 16,7 9,5 77 3,7 3278 3,4 10,2 --- 10,5
22.05.2020 15,9 16,9 18,8 18,2 23,4 10,6 69 2,5 3341 2,0 7,8 --- 10,5
21.05.2020 15,4 16,7 18,7 16,4 25,2 7,0 66 0,0 7534 1,4 6,1 --- 12,7
20.05.2020 15,4 16,7 17,2 15,7 19,4 10,2 72 0,0 4816 1,8 6,7 --- 12,3
19.05.2020 14,8 16,1 17,7 16,6 23,8 8,5 60 0,0 6011 1,6 7,3 --- 11,9
18.05.2020 14,0 15,4 16,9 15,3 23,7 6,2 56 0,0 6989 2,4 11,0 --- 12,6
17.05.2020 13,3 14,6 14,1 12,1 19,3 5,5 59 0,0 7218 1,6 6,9 --- 11,7
16.05.2020 12,2 13,2 12,5 10,6 19,0 1,0 61 0,0 7262 1,4 6,5 --- 12,3
15.05.2020 11,5 12,0 10,0 8,1 15,2 -0,1 61 0,0 7302 2,1 7,7 --- 12,8
14.05.2020 11,4 11,6 8,6 7,6 13,9 2,9 71 0,0 4782 1,9 8,3 --- 10,5
13.05.2020 11,1 11,2 9,0 7,6 14,0 1,7 66 0,0 5019 1,3 6,0 --- 10,8
12.05.2020 11,2 10,6 6,7 5,3 11,1 -1,1 69 0,0 4929 1,4 4,5 --- 12,0
11.05.2020 13,1 12,5 5,9 5,6 14,0 1,3 81 4,3 1825 3,1 12,3 --- 5,0
10.05.2020 14,0 14,7 14,8 14,4 21,7 8,5 78 0,0 2815 1,0 6,7 --- 8,5
09.05.2020 13,9 15,1 16,5 15,8 25,1 7,1 55 0,0 5781 1,5 5,8 --- 12,1
08.05.2020 13,2 14,5 15,2 14,2 23,1 6,2 51 0,0 6507 1,3 7,7 --- 11,5
07.05.2020 12,3 13,3 13,7 12,2 21,9 2,6 52 0,0 7310 1,4 5,3 --- 11,9
06.05.2020 11,5 12,1 10,5 8,8 17,0 0,2 60 0,0 7444 1,7 9,2 --- 12,5
05.05.2020 11,1 11,5 8,8 7,2 13,7 1,1 66 0,1 7412 2,2 8,5 --- 12,0
04.05.2020 11,4 11,5 9,8 9,3 13,1 5,2 84 1,9 2302 1,8 7,3 --- 8,1
03.05.2020 11,2 11,4 10,4 9,7 14,5 4,0 78 0,0 4134 1,9 7,6 --- 10,1
02.05.2020 11,4 11,3 8,8 8,4 11,7 6,3 85 3,1 2722 3,1 13,0 --- 6,6
01.05.2020 11,9 11,9 10,1 9,6 13,9 6,6 80 2,5 4172 4,3 12,6 --- 10,2
30.04.2020 12,5 12,9 12,4 12,0 15,8 8,1 76 3,4 3796 4,9 18,8 --- 9,0
29.04.2020 12,5 13,1 14,0 13,3 18,2 9,1 72 0,0 4405 3,3 12,1 --- 10,4
28.04.2020 12,6 12,9 12,3 12,2 17,2 5,8 73 0,9 2258 1,9 10,8 --- 9,4
27.04.2020 12,8 13,7 14,4 13,2 22,0 3,2 54 0,0 6344 2,3 9,8 --- 11,3
26.04.2020 12,4 13,3 12,2 10,9 20,4 1,5 60 0,0 6621 1,3 5,2 --- 11,5
25.04.2020 12,5 13,3 10,8 9,6 15,7 5,3 62 0,0 5617 2,2 8,7 --- 11,2
24.04.2020 12,3 13,3 14,1 13,5 21,2 4,8 54 0,0 5779 2,0 9,4 --- 10,8
23.04.2020 11,8 12,8 14,6 14,0 21,5 6,4 46 0,0 6564 1,8 8,5 --- 11,3
22.04.2020 11,4 12,3 13,7 12,9 19,9 6,5 43 0,0 6685 3,2 11,1 --- 11,4
21.04.2020 11,0 11,6 12,6 11,8 17,4 4,7 44 0,0 6576 3,9 13,9 --- 11,3
20.04.2020 11,2 11,5 11,3 10,4 16,1 4,4 42 0,0 6596 3,9 14,7 --- 11,4
19.04.2020 12,2 13,2 12,2 11,5 16,6 7,4 65 4,4 5024 2,2 9,3 --- 9,3
18.04.2020 11,6 12,7 14,3 13,7 23,2 5,7 69 0,0 4632 1,2 7,2 --- 9,9
17.04.2020 11,1 12,4 14,2 13,5 21,8 5,1 58 0,0 5741 1,5 6,0 --- 11,2
16.04.2020 10,1 11,1 13,7 13,2 22,4 3,3 49 0,0 5740 1,6 6,8 --- 11,1
15.04.2020 9,1 9,6 9,0 8,1 18,0 -0,8 56 0,0 5652 1,4 5,6 --- 10,9
14.04.2020 9,5 9,0 4,8 4,3 10,2 0,0 60 0,0 3394 1,9 8,2 --- 9,4
13.04.2020 10,9 11,1 8,2 8,0 12,6 1,8 58 0,0 3781 2,8 11,7 --- 9,4
12.04.2020 10,9 11,8 14,4 14,0 22,7 5,4 48 0,0 5006 2,5 10,1 --- 8,8
11.04.2020 10,5 11,2 11,7 11,0 20,9 1,2 46 0,0 5753 1,6 6,2 --- 10,6
10.04.2020 10,7 11,5 12,1 11,5 18,4 5,0 59 0,0 5718 2,0 9,7 --- 11,0
09.04.2020 10,6 11,6 13,3 13,1 20,4 5,3 57 0,0 5012 1,9 8,0 --- 10,8
08.04.2020 10,3 11,7 15,6 15,2 22,8 7,2 57 0,0 5339 1,5 7,1 --- 10,3
07.04.2020 9,3 10,7 14,5 14,0 21,0 7,1 62 0,0 5200 2,3 10,1 --- 10,3
06.04.2020 8,2 9,1 14,1 13,8 21,5 2,8 43 0,0 5453 2,4 10,9 --- 10,3
05.04.2020 7,3 8,2 11,9 11,1 19,5 2,8 49 0,0 5455 2,8 10,7 --- 10,3
04.04.2020 6,3 6,9 7,9 7,1 14,4 0,7 67 0,0 5072 1,8 7,4 --- 10,3
03.04.2020 6,2 6,1 5,7 5,8 9,0 2,4 78 0,4 1028 2,0 8,4 --- 2,1
02.04.2020 5,9 6,0 5,4 4,8 12,6 -2,9 62 0,0 5043 1,8 9,7 --- 10,3
01.04.2020 5,5 5,4 3,8 3,1 11,7 -4,8 51 0,0 5161 1,6 4,7 --- 9,9
31.03.2020 5,7 5,6 3,4 2,6 8,3 -2,5 64 0,1 3972 1,8 6,8 --- 10,0
30.03.2020 5,5 4,9 1,5 0,7 6,8 -6,1 63 0,0 3985 1,6 7,7 --- 8,6
29.03.2020 6,6 6,4 3,3 3,0 6,4 -0,8 72 0,1 2225 3,3 13,8 --- 6,4
28.03.2020 6,4 6,9 8,8 8,7 14,9 2,4 56 0,0 4641 2,4 8,7 --- 9,8
27.03.2020 5,4 5,7 9,1 8,7 17,2 0,7 50 0,0 4447 2,8 10,3 --- 9,9
26.03.2020 4,9 4,5 4,7 4,2 10,6 -1,4 49 0,0 4497 3,3 11,6 --- 9,1
25.03.2020 4,9 4,4 3,5 3,0 10,4 -3,6 41 0,0 4881 3,3 10,7 --- 9,5
24.03.2020 5,0 4,5 3,5 2,7 9,3 -3,0 41 0,0 4799 2,8 8,0 --- 9,5
23.03.2020 5,4 4,5 2,3 1,7 8,1 -3,5 42 0,0 4733 2,7 8,5 --- 9,5
22.03.2020 6,2 5,3 2,4 1,8 6,8 -3,2 55 0,0 4736 2,6 11,8 --- 9,5
21.03.2020 7,6 7,2 4,8 4,3 7,6 0,7 66 0,0 3092 3,8 12,2 --- 8,4
20.03.2020 8,5 8,7 8,0 8,0 10,5 4,8 86 0,0 807 2,2 9,0 --- 1,4
19.03.2020 8,1 9,0 11,6 11,4 16,7 7,0 69 0,0 3804 1,4 6,5 --- 8,5
18.03.2020 7,6 7,9 9,6 9,9 16,3 4,8 71 0,0 3717 2,6 11,7 --- 7,9
17.03.2020 7,4 8,2 10,4 10,4 15,4 7,0 71 0,0 2896 1,5 5,9 --- 8,0
16.03.2020 6,5 6,8 9,4 9,7 16,0 1,9 66 0,0 3682 1,8 6,4 --- 9,3
15.03.2020 6,3 6,4 9,0 8,5 13,4 4,2 59 0,0 3720 2,4 11,3 --- 8,9
14.03.2020 6,1 5,9 5,2 5,1 11,1 0,4 81 0,0 2488 1,1 4,4 --- 8,1
13.03.2020 6,6 6,0 5,3 5,5 9,7 2,8 74 0,2 1560 5,0 14,4 --- 5,0
12.03.2020 7,7 8,3 9,5 9,6 12,1 4,2 69 1,1 2411 5,5 15,5 --- 6,1
11.03.2020 6,8 7,9 10,0 10,2 12,2 6,9 95 13,3 1019 3,4 14,0 --- 2,2
10.03.2020 5,7 5,7 6,3 6,7 10,6 3,7 92 5,1 545 6,3 13,6 --- 0,1
09.03.2020 5,8 6,2 7,2 7,0 10,5 4,0 80 0,4 2545 3,5 10,3 --- 7,5
08.03.2020 4,9 4,9 7,2 7,1 10,3 4,2 72 0,0 1903 4,7 13,9 --- 5,5
07.03.2020 4,9 4,6 4,1 4,2 7,1 2,5 80 0,5 1240 2,5 7,3 --- 4,6
06.03.2020 5,0 5,0 4,4 4,8 7,0 3,4 93 10,9 524 3,1 10,9 --- 0,8
05.03.2020 4,6 4,3 4,6 4,7 8,6 2,0 83 3,4 1230 2,3 10,0 --- 5,3
04.03.2020 4,7 3,9 3,0 3,2 8,3 0,0 85 0,0 1332 2,8 8,0 --- 3,7
03.03.2020 5,6 5,5 4,3 4,2 8,1 0,7 83 5,3 2113 2,4 9,4 --- 7,1
02.03.2020 5,2 5,5 6,5 6,3 11,3 1,3 78 5,7 2267 2,2 11,9 --- 6,2
01.03.2020 5,0 4,9 6,2 6,4 9,4 4,1 73 0,2 1998 5,7 17,4 --- 6,0
29.02.2020 4,5 4,8 7,3 7,4 12,7 1,8 79 1,0 1847 5,2 18,7 --- 6,3
28.02.2020 4,0 3,3 2,3 2,3 4,8 0,1 85 2,6 1537 3,7 15,9 --- 6,2
27.02.2020 4,4 3,6 1,6 1,8 4,0 0,4 91 3,3 729 3,3 9,8 --- 1,6
26.02.2020 5,3 4,5 2,1 2,4 3,7 0,7 90 0,7 748 4,9 13,7 --- 1,5
25.02.2020 6,0 6,4 7,4 7,4 9,7 3,1 79 4,6 2137 6,4 17,9 --- 6,3
24.02.2020 5,5 5,2 4,7 5,1 9,5 0,5 84 0,1 705 4,3 18,1 --- 1,1
23.02.2020 5,5 6,2 7,8 8,4 11,3 4,8 89 6,5 505 7,3 19,6 --- 0,2
22.02.2020 4,7 4,4 6,1 6,3 9,0 3,3 75 0,2 1178 7,5 19,0 --- 4,7
21.02.2020 4,9 4,6 4,7 4,8 7,3 2,3 76 1,4 1744 5,5 14,7 --- 5,8
20.02.2020 4,7 4,4 5,0 5,3 7,9 2,1 84 1,2 927 5,4 13,9 --- 3,4
19.02.2020 5,1 4,6 4,0 4,3 6,1 1,8 79 1,6 1098 4,9 14,1 --- 4,2
18.02.2020 5,6 5,3 5,2 5,5 7,4 4,3 82 0,8 1628 6,7 16,1 --- 5,5
17.02.2020 6,1 6,4 7,1 7,3 14,0 4,7 82 2,9 1183 6,2 17,3 --- 5,5
16.02.2020 5,3 6,1 11,8 12,4 15,3 9,4 60 0,6 1398 8,7 24,2 --- 4,8
15.02.2020 4,4 4,5 7,2 7,4 10,0 5,4 77 0,0 1803 4,2 12,9 --- 6,6
14.02.2020 3,7 3,7 4,7 4,8 6,9 2,9 90 1,3 1058 2,9 7,6 --- 4,2
13.02.2020 3,2 2,4 2,2 2,7 4,8 -0,1 89 3,5 423 3,0 11,4 --- 0,1
12.02.2020 3,7 2,8 2,1 2,6 6,1 0,2 78 0,1 1376 6,0 15,4 --- 4,9
11.02.2020 4,5 3,8 2,9 3,1 6,1 0,2 79 2,1 1488 7,8 21,4 --- 4,4
10.02.2020 5,2 5,5 6,1 6,7 11,4 3,3 81 6,6 1250 9,3 23,3 --- 3,4
09.02.2020 4,0 4,2 8,0 8,5 11,6 4,5 72 2,7 1010 7,4 27,9 --- 3,5
08.02.2020 3,6 2,7 2,2 2,7 6,3 -1,6 82 0,0 1245 1,0 4,5 --- 4,5
07.02.2020 4,1 3,7 3,0 2,9 7,4 -0,5 80 0,0 1502 1,3 6,6 --- 4,4
06.02.2020 4,0 3,1 1,4 1,6 3,8 -0,9 89 0,0 496 0,9 6,2 --- ---
05.02.2020 4,9 4,2 2,7 2,7 6,3 -0,4 78 0,0 1773 2,4 9,9 --- 5,3
04.02.2020 5,8 5,4 3,1 3,2 5,9 1,6 93 11,9 1003 2,5 10,9 --- 3,3
03.02.2020 6,2 6,4 8,0 8,5 9,9 5,9 82 1,0 591 4,7 11,0 --- 1,3
02.02.2020 6,1 6,3 7,4 7,8 11,2 5,3 84 2,2 290 4,6 12,8 --- ---
01.02.2020 6,1 7,1 9,7 10,2 11,2 7,3 88 5,0 275 5,4 14,4 --- ---
31.01.2020 4,7 5,8 10,5 10,7 13,5 7,3 83 0,0 912 5,5 14,2 --- 3,5
30.01.2020 3,3 3,2 4,9 5,3 7,6 2,0 85 0,0 738 5,7 13,2 --- 2,2
29.01.2020 3,3 2,7 2,2 2,6 4,6 1,3 88 0,0 488 5,5 12,0 --- 0,8
28.01.2020 3,7 3,7 3,6 4,1 6,1 1,1 87 3,6 517 6,1 15,2 --- 0,5
27.01.2020 2,8 3,0 4,7 5,2 7,0 1,5 94 3,0 344 3,9 12,3 --- 0,2
26.01.2020 2,0 1,6 0,9 0,6 2,7 -1,4 100 0,0 551 1,0 3,7 --- 0,3
25.01.2020 1,9 1,0 -1,0 -1,1 -0,2 -1,8 98 0,0 306 2,1 5,2 --- ---
24.01.2020 2,0 1,0 -1,3 -1,3 -0,8 -2,9 96 0,0 312 2,8 6,4 --- ---
23.01.2020 2,1 1,2 0,2 0,5 2,4 -2,7 93 0,0 497 0,8 4,0 --- ---
22.01.2020 2,3 0,9 -2,7 -2,2 0,6 -7,2 99 0,1 469 0,5 2,7 --- 0,2
21.01.2020 3,2 1,7 -2,8 -2,1 4,4 -6,7 95 0,1 1249 0,7 3,0 --- 4,3
20.01.2020 4,2 3,5 1,5 1,8 5,2 -2,0 90 0,0 820 0,8 3,3 --- 3,0
19.01.2020 4,4 3,7 1,7 1,9 3,4 0,3 96 2,5 373 0,7 3,7 --- 0,3
18.01.2020 5,0 4,4 3,0 3,5 6,6 0,1 87 0,2 617 3,6 10,8 --- 1,2
17.01.2020 5,2 4,8 6,6 7,0 9,5 3,6 82 0,0 890 2,8 10,1 --- 3,4
16.01.2020 5,6 5,7 7,4 7,9 12,5 4,0 86 0,0 917 1,7 8,6 --- 3,1
15.01.2020 5,3 5,6 9,7 10,0 11,3 8,7 66 0,1 882 5,4 14,4 --- 3,0
14.01.2020 4,8 4,8 8,0 8,4 10,0 6,0 71 0,0 634 6,5 15,7 --- 2,1
13.01.2020 4,3 4,1 4,9 5,1 6,6 4,3 90 0,0 654 3,9 12,6 --- 1,8
12.01.2020 4,1 3,2 2,5 2,9 4,7 0,7 87 0,1 432 5,3 13,8 --- 0,1
11.01.2020 5,3 4,7 3,2 3,5 5,7 1,4 83 0,0 819 2,6 9,3 --- 2,8
10.01.2020 5,8 6,3 7,0 7,4 9,4 4,1 91 1,2 494 3,8 11,0 --- 0,9
09.01.2020 4,8 5,6 8,6 9,1 10,7 7,0 96 10,5 230 3,7 12,2 --- ---
08.01.2020 3,6 3,7 5,1 5,4 7,2 3,9 93 3,0 128 3,2 10,3 --- ---
07.01.2020 3,2 2,7 2,6 2,7 5,4 0,1 95 0,0 363 3,2 9,1 --- ---
06.01.2020 3,3 3,1 2,7 2,9 5,4 0,0 92 0,0 514 1,7 7,6 --- 0,8
05.01.2020 2,9 2,5 2,0 2,6 4,5 -0,1 98 0,8 206 1,5 6,0 --- ---
04.01.2020 2,8 2,6 2,6 3,1 5,0 -0,1 94 2,0 322 3,4 11,6 --- 0,1
03.01.2020 1,8 1,3 4,4 4,8 7,0 1,9 95 2,5 243 5,2 15,1 --- ---
02.01.2020 1,8 0,6 -2,0 -1,3 2,2 -4,5 97 0,1 233 2,2 10,6 --- ---
01.01.2020 2,1 1,0 -1,2 -0,1 5,7 -4,0 90 0,1 833 0,9 3,4 --- 2,8

Mittelwerte (Temperaturen, Strahlung, rel. Feuchte, Wind), Summe (Regen) für 2020
10,9 11,2 11,3 10,7 72 257 3.702 2,7

Landesbetrieb Landwirtschaft Hessen 2009

      Werte bis 5 Uhr SommerzeitCSV-Datei: Mardorf20.csvDiagramm: Mardorf